Time;durP1;ratioP1;P1;durP2;ratioP2;P2;SDS_P1;SDS_P2;PMS_P1;PMS_P2;Temp;Humidity;BMP_temperature;BMP_pressure;BME280_temperature;BME280_humidity;BME280_pressure;Samples;Min_cycle;Max_cycle;Signal;HPM_P1;HPM_P2
2022/04/04 00:02:14;;;;;;;13.15;8.25;;;;;;;2.52;70.89;99966.97;5009670;28;20401;-66
2022/04/04 00:04:39;;;;;;;8.27;6.32;;;;;;;2.48;70.79;99963.53;5009371;28;20049;-66
2022/04/04 00:07:05;;;;;;;14.23;8.10;;;;;;;2.49;71.07;99964.41;5009773;28;20049;-66
2022/04/04 00:09:30;;;;;;;10.90;7.03;;;;;;;2.48;70.76;99962.66;5009457;28;20034;-66
2022/04/04 00:11:55;;;;;;;11.25;8.07;;;;;;;2.46;71.30;99954.00;5007067;28;20038;-66
2022/04/04 00:14:21;;;;;;;11.40;7.55;;;;;;;2.47;70.95;99958.34;5010068;28;20042;-64
2022/04/04 00:16:46;;;;;;;10.68;7.60;;;;;;;2.46;70.97;99946.22;5010730;28;20057;-66
2022/04/04 00:19:12;;;;;;;16.10;10.05;;;;;;;2.42;71.26;99941.94;5010032;28;20429;-66
2022/04/04 00:21:37;;;;;;;12.07;8.50;;;;;;;2.38;70.96;99946.31;5011198;28;20401;-66
2022/04/04 00:24:03;;;;;;;8.95;7.00;;;;;;;2.35;71.26;99939.41;5012805;28;20533;-66
2022/04/04 00:26:29;;;;;;;13.75;8.43;;;;;;;2.32;71.50;99934.25;5009575;28;20042;-65
2022/04/04 00:28:54;;;;;;;10.95;7.68;;;;;;;2.33;71.25;99940.31;5013197;28;20034;-65
2022/04/04 00:31:20;;;;;;;12.00;7.55;;;;;;;2.33;70.96;99927.31;5012120;28;20399;-65
2022/04/04 00:33:45;;;;;;;9.45;6.80;;;;;;;2.31;71.21;99934.28;5012613;28;20113;-65
2022/04/04 00:36:10;;;;;;;10.70;7.95;;;;;;;2.30;71.34;99930.81;5012918;28;20034;-65
2022/04/04 00:38:36;;;;;;;12.25;8.55;;;;;;;2.27;71.40;99930.88;5012506;28;20560;-66
2022/04/04 00:41:07;;;;;;;18.15;10.18;;;;;;;2.23;71.46;99930.91;5011726;28;20029;-67
2022/04/04 00:43:33;;;;;;;11.27;7.20;;;;;;;2.21;71.44;99925.72;5011033;28;20402;-67
2022/04/04 00:45:59;;;;;;;11.63;8.27;;;;;;;2.21;71.26;99923.13;5012023;28;20029;-65
2022/04/04 00:48:25;;;;;;;9.60;6.90;;;;;;;2.19;71.33;99919.72;5012427;28;20498;-65
2022/04/04 00:50:50;;;;;;;11.50;7.65;;;;;;;2.19;71.30;99916.22;5013084;28;20080;-65
2022/04/04 00:53:15;;;;;;;10.55;6.70;;;;;;;2.20;71.07;99918.81;5012459;28;20041;-66
2022/04/04 00:55:42;;;;;;;7.90;6.40;;;;;;;2.21;70.40;99911.88;5012930;28;20034;-66
2022/04/04 00:58:09;;;;;;;9.77;7.32;;;;;;;2.21;70.73;99911.88;5011743;28;20064;-66
2022/04/04 01:00:35;;;;;;;9.57;6.20;;;;;;;2.23;70.70;99910.09;5002609;28;20093;-66
2022/04/04 01:03:01;;;;;;;11.00;7.25;;;;;;;2.20;70.66;99911.00;5011930;28;20541;-65
2022/04/04 01:05:27;;;;;;;10.13;7.55;;;;;;;2.18;70.46;99898.91;5011997;28;20042;-67
2022/04/04 01:07:52;;;;;;;13.77;7.30;;;;;;;2.16;70.67;99901.50;5012543;28;20030;-67
2022/04/04 01:10:18;;;;;;;11.95;7.35;;;;;;;2.13;70.98;99897.22;5010827;28;20032;-66
2022/04/04 01:12:51;;;;;;;14.00;7.88;;;;;;;2.11;70.63;99898.97;5012351;28;20033;-65
2022/04/04 01:15:17;;;;;;;8.32;7.38;;;;;;;2.07;70.93;99893.84;5013059;28;20445;-68
2022/04/04 01:17:42;;;;;;;9.60;7.13;;;;;;;2.01;71.25;99886.13;5014553;28;20030;-68
2022/04/04 01:20:08;;;;;;;13.48;7.90;;;;;;;2.00;71.05;99882.66;5016057;28;20430;-66
2022/04/04 01:22:33;;;;;;;9.70;7.35;;;;;;;2.00;71.26;99880.06;5012588;28;20034;-67
2022/04/04 01:24:59;;;;;;;12.50;7.03;;;;;;;1.99;70.46;99880.06;5012056;28;20525;-67
2022/04/04 01:27:24;;;;;;;12.38;6.97;;;;;;;1.97;71.04;99871.44;5011828;28;20038;-67
2022/04/04 01:29:50;;;;;;;9.35;6.75;;;;;;;1.95;70.90;99874.06;5011920;28;20045;-66
2022/04/04 01:32:15;;;;;;;10.45;7.93;;;;;;;1.95;71.35;99873.22;5010674;28;20042;-67
2022/04/04 01:34:41;;;;;;;9.95;7.78;;;;;;;1.93;71.16;99857.63;5012144;28;20037;-65
2022/04/04 01:37:07;;;;;;;13.35;7.85;;;;;;;1.94;70.95;99864.53;5011752;28;20033;-66
2022/04/04 01:39:32;;;;;;;9.32;7.40;;;;;;;1.92;70.65;99861.97;5010394;28;20504;-65
2022/04/04 01:41:58;;;;;;;9.50;7.25;;;;;;;1.91;70.92;99860.22;5010705;28;20083;-68
2022/04/04 01:44:23;;;;;;;11.00;7.68;;;;;;;1.87;71.21;99858.56;5011506;28;20038;-67
2022/04/04 01:46:49;;;;;;;9.90;8.02;;;;;;;1.86;71.21;99859.44;5011959;28;20038;-66
2022/04/04 01:49:14;;;;;;;9.40;8.25;;;;;;;1.80;71.25;99856.94;5011631;28;20538;-66
2022/04/04 01:51:40;;;;;;;8.60;7.45;;;;;;;1.82;70.97;99852.56;5012072;28;20124;-65
2022/04/04 01:54:06;;;;;;;13.07;8.30;;;;;;;1.80;70.93;99849.13;5011970;28;20449;-66
2022/04/04 01:56:32;;;;;;;11.35;8.02;;;;;;;1.79;70.96;99846.53;5011636;28;20173;-66
2022/04/04 01:58:59;;;;;;;10.13;8.50;;;;;;;1.76;71.48;99847.44;5011485;28;20049;-66
2022/04/04 02:01:26;;;;;;;10.45;8.77;;;;;;;1.72;71.12;99840.53;5009899;28;20559;-68
2022/04/04 02:03:54;;;;;;;13.20;8.60;;;;;;;1.70;70.93;99843.19;5011029;28;20034;-65
2022/04/04 02:06:19;;;;;;;10.68;7.90;;;;;;;1.67;71.20;99845.81;5009351;28;20087;-67
2022/04/04 02:08:45;;;;;;;16.15;8.73;;;;;;;1.63;71.41;99838.94;5010960;28;20120;-67
2022/04/04 02:11:12;;;;;;;12.43;9.77;;;;;;;1.61;70.82;99835.50;5010619;28;20037;-66
2022/04/04 02:13:38;;;;;;;11.80;9.38;;;;;;;1.59;71.28;99829.44;5011040;28;20487;-68
2022/04/04 02:16:04;;;;;;;10.52;8.43;;;;;;;1.59;71.13;99833.78;5010348;28;20053;-67
2022/04/04 02:18:31;;;;;;;11.65;8.43;;;;;;;1.57;70.99;99831.19;5007630;28;20037;-66
2022/04/04 02:20:58;;;;;;;11.45;8.75;;;;;;;1.57;70.87;99825.16;5010564;28;20073;-67
2022/04/04 02:23:24;;;;;;;12.23;8.98;;;;;;;1.55;70.89;99817.41;5010608;28;20041;-67
2022/04/04 02:25:51;;;;;;;13.50;10.15;;;;;;;1.55;71.05;99817.41;5010437;28;20402;-67
2022/04/04 02:28:17;;;;;;;17.42;10.68;;;;;;;1.56;70.71;99813.06;5009112;28;20117;-67
2022/04/04 02:30:43;;;;;;;13.38;8.70;;;;;;;1.58;70.60;99808.69;5010343;28;20030;-67
2022/04/04 02:33:09;;;;;;;15.52;10.95;;;;;;;1.56;70.81;99808.72;5010984;28;20029;-65
2022/04/04 02:35:35;;;;;;;14.43;8.88;;;;;;;1.58;70.66;99808.69;5010416;28;20397;-65
2022/04/04 02:38:02;;;;;;;13.05;9.25;;;;;;;1.57;70.53;99804.38;5010711;28;20030;-66
2022/04/04 02:40:28;;;;;;;12.35;9.60;;;;;;;1.57;71.04;99805.22;5010242;28;20068;-65
2022/04/04 02:42:54;;;;;;;21.48;9.63;;;;;;;1.56;70.54;99793.13;5009661;28;20405;-65
2022/04/04 02:45:19;;;;;;;16.92;9.98;;;;;;;1.57;71.04;99794.81;5010385;28;20034;-66
2022/04/04 02:47:45;;;;;;;14.20;10.02;;;;;;;1.58;70.60;99790.50;5010191;28;20117;-65
2022/04/04 02:50:11;;;;;;;14.38;10.70;;;;;;;1.58;70.44;99791.38;5010654;28;20053;-66
2022/04/04 02:52:37;;;;;;;12.18;9.07;;;;;;;1.56;70.11;99782.72;5008502;28;20061;-66
2022/04/04 02:56:28;;;;;;;15.25;11.05;;;;;;;1.55;70.68;99778.41;5008871;28;20100;-66
2022/04/04 02:57:48;;;;;;;15.52;11.93;;;;;;;1.53;70.65;99762.00;5009752;28;20041;-67
2022/04/04 03:00:14;;;;;;;17.55;10.95;;;;;;;1.53;70.46;99763.69;5010156;28;20083;-66
2022/04/04 03:02:40;;;;;;;19.33;14.88;;;;;;;1.55;70.58;99761.94;5010276;28;20161;-67
2022/04/04 03:05:05;;;;;;;20.23;13.07;;;;;;;1.53;70.59;99751.59;5010835;28;20497;-66
2022/04/04 03:07:31;;;;;;;18.13;12.75;;;;;;;1.55;70.02;99752.44;5010867;28;20038;-66
2022/04/04 03:09:56;;;;;;;24.38;19.10;;;;;;;1.57;70.25;99749.81;5009996;28;20036;-65
2022/04/04 03:12:21;;;;;;;20.95;14.93;;;;;;;1.54;70.13;99749.84;5010661;28;20072;-65
2022/04/04 03:14:47;;;;;;;18.83;12.98;;;;;;;1.55;69.64;99749.84;5011243;28;20520;-65
2022/04/04 03:17:12;;;;;;;17.58;9.82;;;;;;;1.54;70.01;99747.25;5011658;28;20042;-66
2022/04/04 03:19:38;;;;;;;15.35;11.35;;;;;;;1.50;70.51;99734.31;5006771;28;20112;-67
2022/04/04 03:22:03;;;;;;;13.50;10.55;;;;;;;1.53;70.33;99729.94;5009915;28;20045;-66
2022/04/04 03:24:29;;;;;;;17.70;10.07;;;;;;;1.54;70.02;99732.53;5009757;28;20038;-66
2022/04/04 03:26:54;;;;;;;15.32;9.63;;;;;;;1.56;70.03;99722.97;5010532;28;20038;-66
2022/04/04 03:29:19;;;;;;;14.90;10.27;;;;;;;1.53;69.87;99722.13;5010752;28;20033;-66
2022/04/04 03:31:45;;;;;;;14.80;10.55;;;;;;;1.53;69.70;99720.41;5009801;28;20037;-67
2022/04/04 03:34:10;;;;;;;13.63;9.60;;;;;;;1.55;69.69;99716.06;5010481;28;20034;-67
2022/04/04 03:36:35;;;;;;;14.48;9.93;;;;;;;1.56;69.19;99711.72;5009673;28;20541;-68
2022/04/04 03:39:01;;;;;;;15.20;9.38;;;;;;;1.57;69.41;99703.03;5009732;28;20036;-67
2022/04/04 03:41:26;;;;;;;12.30;9.35;;;;;;;1.54;69.60;99710.88;5008982;28;20041;-66
2022/04/04 03:43:51;;;;;;;16.20;10.23;;;;;;;1.55;69.44;99703.06;5009756;28;20033;-66
2022/04/04 03:46:17;;;;;;;14.23;9.48;;;;;;;1.57;69.70;99693.50;5009352;28;20172;-65
2022/04/04 03:48:42;;;;;;;14.82;9.20;;;;;;;1.54;69.47;99696.16;5009608;28;20042;-65
2022/04/04 03:51:09;;;;;;;13.68;9.40;;;;;;;1.57;69.54;99690.06;5009253;28;20045;-66
2022/04/04 03:53:34;;;;;;;12.00;9.07;;;;;;;1.55;69.30;99687.50;5009612;28;20536;-66
2022/04/04 03:56:00;;;;;;;12.85;9.68;;;;;;;1.58;69.15;99676.19;5011077;28;20034;-67
2022/04/04 03:58:25;;;;;;;12.70;9.02;;;;;;;1.58;69.21;99686.59;5013050;28;20042;-66
2022/04/04 04:00:51;;;;;;;13.55;8.70;;;;;;;1.60;69.31;99674.41;5012200;28;20053;-65
2022/04/04 04:03:16;;;;;;;16.40;9.70;;;;;;;1.61;68.93;99679.59;5013116;28;20034;-67
2022/04/04 04:05:41;;;;;;;14.18;8.20;;;;;;;1.62;68.72;99670.06;5013272;28;20034;-66
2022/04/04 04:08:07;;;;;;;12.50;9.05;;;;;;;1.65;68.74;99667.41;5013415;28;20164;-69
2022/04/04 04:10:32;;;;;;;16.35;9.20;;;;;;;1.64;68.94;99666.56;5012281;28;20077;-66
2022/04/04 04:13:00;;;;;;;14.73;9.90;;;;;;;1.67;68.90;99660.44;4993593;28;20034;-66
2022/04/04 04:15:25;;;;;;;12.30;8.13;;;;;;;1.67;68.97;99665.63;4993407;28;20109;-66
2022/04/04 04:17:52;;;;;;;9.75;8.20;;;;;;;1.65;68.45;99657.00;4993274;28;20121;-65
2022/04/04 04:20:26;;;;;;;12.73;9.48;;;;;;;1.70;68.61;99656.06;4993238;28;20510;-66
2022/04/04 04:22:59;;;;;;;16.65;9.30;;;;;;;1.71;68.74;99646.53;4992795;28;20515;-67
2022/04/04 04:25:28;;;;;;;12.27;9.35;;;;;;;1.74;68.24;99641.28;4992057;28;20043;-66
2022/04/04 04:27:54;;;;;;;10.27;8.32;;;;;;;1.74;68.48;99640.44;4993457;28;20069;-65
2022/04/04 04:30:20;;;;;;;10.38;7.78;;;;;;;1.74;68.37;99633.50;5006809;28;20524;-64
2022/04/04 04:32:49;;;;;;;10.70;7.65;;;;;;;1.76;68.35;99636.06;5011354;28;20180;-67
2022/04/04 04:35:15;;;;;;;11.10;8.65;;;;;;;1.75;68.32;99624.81;5012875;28;20509;-66
2022/04/04 04:37:41;;;;;;;9.98;7.38;;;;;;;1.78;68.02;99627.38;5013062;28;20034;-67
2022/04/04 04:40:08;;;;;;;14.57;7.78;;;;;;;1.80;67.52;99619.56;5012440;28;20091;-66
2022/04/04 04:42:33;;;;;;;11.50;8.73;;;;;;;1.80;67.91;99617.81;5012073;28;20427;-66
2022/04/04 04:45:00;;;;;;;17.75;9.00;;;;;;;1.82;67.53;99612.56;5012860;28;20037;-65
2022/04/04 04:47:25;;;;;;;10.45;7.45;;;;;;;1.84;67.10;99608.22;5011578;28;20501;-66
2022/04/04 04:49:51;;;;;;;12.70;7.22;;;;;;;1.86;67.25;99607.28;5013223;28;20041;-66
2022/04/04 04:52:16;;;;;;;14.60;8.25;;;;;;;1.90;67.26;99600.31;5012209;28;20041;-66
2022/04/04 04:54:45;;;;;;;10.13;6.95;;;;;;;1.89;66.87;99599.44;5012959;28;20045;-65
2022/04/04 04:57:10;;;;;;;8.60;6.40;;;;;;;1.90;67.01;99592.53;5012133;28;20116;-67
2022/04/04 04:59:36;;;;;;;10.77;6.30;;;;;;;1.93;66.59;99595.06;5011960;28;20522;-67
2022/04/04 05:02:01;;;;;;;16.08;7.65;;;;;;;1.93;66.62;99587.25;5007708;28;20074;-66
2022/04/04 05:04:26;;;;;;;11.07;7.22;;;;;;;1.96;66.97;99583.75;4996511;28;20042;-66
2022/04/04 05:06:52;;;;;;;12.18;7.18;;;;;;;1.98;67.08;99588.03;5011144;28;20052;-66
2022/04/04 05:09:17;;;;;;;10.27;6.65;;;;;;;1.98;66.81;99582.00;5011563;28;20512;-66
2022/04/04 05:11:43;;;;;;;10.40;6.65;;;;;;;1.99;66.52;99573.28;5011532;28;20038;-68
2022/04/04 05:14:18;;;;;;;11.07;6.47;;;;;;;2.00;66.69;99580.22;5012552;28;20058;-66
2022/04/04 05:16:44;;;;;;;8.65;6.35;;;;;;;2.01;66.90;99572.38;5012171;28;20038;-68
2022/04/04 05:19:11;;;;;;;11.23;6.32;;;;;;;2.00;67.14;99568.06;5012972;28;20034;-66
2022/04/04 05:21:37;;;;;;;9.25;6.75;;;;;;;2.03;67.07;99565.41;5011825;28;20038;-67
2022/04/04 05:24:04;;;;;;;10.18;6.35;;;;;;;2.07;66.82;99567.09;5012373;28;20069;-67
2022/04/04 05:26:29;;;;;;;9.95;7.22;;;;;;;2.08;66.90;99558.38;5011882;28;20112;-65
2022/04/04 05:28:55;;;;;;;10.05;6.97;;;;;;;2.10;66.93;99566.16;5012017;28;20045;-67
2022/04/04 05:31:21;;;;;;;9.75;6.43;;;;;;;2.09;67.12;99548.84;5011349;28;20085;-67
2022/04/04 05:33:46;;;;;;;10.93;6.10;;;;;;;2.15;66.97;99564.34;5012711;28;20040;-66
2022/04/04 05:36:11;;;;;;;12.40;6.65;;;;;;;2.15;66.67;99538.34;5014026;28;20033;-66
2022/04/04 05:38:37;;;;;;;9.73;6.95;;;;;;;2.20;66.76;99556.47;5013676;28;20038;-67
2022/04/04 05:41:02;;;;;;;6.13;5.20;;;;;;;2.21;66.71;99552.97;5012126;28;20059;-65
2022/04/04 05:43:28;;;;;;;12.23;6.82;;;;;;;2.22;67.38;99550.34;5012887;28;20554;-66
2022/04/04 05:45:54;;;;;;;9.90;6.72;;;;;;;2.26;67.04;99540.72;5011591;28;20041;-67
2022/04/04 05:48:19;;;;;;;6.80;5.40;;;;;;;2.28;67.13;99550.22;5010967;28;20041;-66
2022/04/04 05:50:45;;;;;;;9.25;5.75;;;;;;;2.29;67.25;99543.25;5010914;28;20033;-66
2022/04/04 05:53:10;;;;;;;9.68;6.95;;;;;;;2.30;66.78;99544.97;5011472;28;20184;-66
2022/04/04 05:55:35;;;;;;;8.55;5.55;;;;;;;2.34;65.96;99542.31;5011683;28;20052;-66
2022/04/04 05:58:01;;;;;;;13.95;6.57;;;;;;;2.40;66.76;99538.72;5011084;28;20114;-67
2022/04/04 06:00:26;;;;;;;12.50;7.82;;;;;;;2.40;66.68;99538.72;5010584;28;20041;-66
2022/04/04 06:02:52;;;;;;;8.32;5.85;;;;;;;2.38;66.27;99532.69;5010369;28;20033;-65
2022/04/04 06:05:17;;;;;;;9.90;7.18;;;;;;;2.42;66.17;99530.88;5010905;28;20038;-64
2022/04/04 06:07:43;;;;;;;15.57;6.38;;;;;;;2.41;66.24;99518.75;5011179;28;20080;-67
2022/04/04 06:10:11;;;;;;;9.85;5.78;;;;;;;2.46;66.11;99523.00;5010799;28;20045;-66
2022/04/04 06:12:38;;;;;;;9.90;6.75;;;;;;;2.51;66.15;99523.75;5010388;28;20037;-66
2022/04/04 06:15:04;;;;;;;12.85;5.63;;;;;;;2.57;65.87;99509.75;5010524;28;20046;-65
2022/04/04 06:17:30;;;;;;;9.35;6.45;;;;;;;2.60;65.74;99504.47;5007814;28;20041;-65
2022/04/04 06:19:55;;;;;;;12.88;5.82;;;;;;;2.63;65.48;99507.00;5011310;28;20045;-67
2022/04/04 06:22:22;;;;;;;11.95;7.25;;;;;;;2.69;65.16;99501.69;5010532;28;20676;-66
2022/04/04 06:24:48;;;;;;;9.02;5.32;;;;;;;2.76;65.06;99495.44;5012438;28;20497;-66
2022/04/04 06:27:15;;;;;;;8.20;6.28;;;;;;;2.84;64.39;99497.03;5012384;28;20037;-66
2022/04/04 06:29:40;;;;;;;11.13;6.07;;;;;;;2.97;64.13;99491.50;5011885;28;20042;-66
2022/04/04 06:32:06;;;;;;;8.40;5.72;;;;;;;3.13;63.46;99485.94;5009670;28;20052;-67
2022/04/04 06:34:31;;;;;;;8.90;5.65;;;;;;;3.50;62.10;99483.28;5010302;28;20094;-67
2022/04/04 06:36:57;;;;;;;13.93;6.93;;;;;;;3.80;61.08;99475.56;5010519;28;20044;-68
2022/04/04 06:39:22;;;;;;;9.93;5.88;;;;;;;4.14;59.51;99469.44;5010928;28;20141;-66
2022/04/04 06:41:47;;;;;;;8.40;6.22;;;;;;;4.25;59.23;99465.59;5009371;28;20095;-69
2022/04/04 06:44:13;;;;;;;7.60;5.50;;;;;;;4.34;58.85;99461.88;5009510;28;20057;-66
2022/04/04 06:46:38;;;;;;;17.63;5.78;;;;;;;4.23;59.04;99450.91;5008802;28;20033;-67
2022/04/04 06:49:04;;;;;;;8.18;6.22;;;;;;;4.27;58.42;99449.91;5009072;28;20040;-68
2022/04/04 06:51:30;;;;;;;6.80;5.50;;;;;;;4.24;58.31;99450.00;5008727;28;20101;-67
2022/04/04 06:53:55;;;;;;;6.60;5.22;;;;;;;4.61;57.56;99441.94;5009085;28;20133;-67
2022/04/04 06:56:21;;;;;;;17.45;5.32;;;;;;;5.01;55.76;99448.53;5008540;28;20080;-67
2022/04/04 06:58:46;;;;;;;5.20;3.92;;;;;;;5.05;55.85;99442.31;5008311;28;20038;-67
2022/04/04 07:01:12;;;;;;;5.93;4.10;;;;;;;4.71;56.43;99434.69;5008840;28;20030;-66
2022/04/04 07:03:37;;;;;;;9.27;4.75;;;;;;;4.33;57.25;99428.84;5010722;28;20045;-66
2022/04/04 07:06:03;;;;;;;5.78;4.03;;;;;;;4.23;57.63;99422.19;5010713;28;20145;-66
2022/04/04 07:08:28;;;;;;;8.80;5.40;;;;;;;4.06;57.29;99422.69;5010938;28;20034;-66
2022/04/04 07:10:54;;;;;;;6.60;4.00;;;;;;;3.94;57.73;99410.88;5010398;28;20041;-66
2022/04/04 07:13:19;;;;;;;6.47;4.07;;;;;;;3.92;57.55;99417.88;5010314;28;20458;-66
2022/04/04 07:15:44;;;;;;;5.78;4.50;;;;;;;3.96;57.62;99406.44;5011316;28;20537;-66
2022/04/04 07:18:10;;;;;;;6.28;3.40;;;;;;;3.98;56.84;99409.84;5010118;28;20401;-66
2022/04/04 07:20:36;;;;;;;6.50;3.70;;;;;;;3.98;56.76;99406.41;5010525;28;20602;-65
2022/04/04 07:23:01;;;;;;;4.97;4.10;;;;;;;3.98;56.95;99394.22;5008750;28;20030;-66
2022/04/04 07:25:28;;;;;;;7.65;4.32;;;;;;;4.02;56.73;99393.22;5009793;28;20033;-66
2022/04/04 07:27:54;;;;;;;8.25;4.28;;;;;;;4.14;56.57;99384.19;5009702;28;20041;-65
2022/04/04 07:30:23;;;;;;;9.88;3.95;;;;;;;4.29;55.25;99396.78;4994721;28;20561;-67
2022/04/04 07:32:49;;;;;;;6.70;3.75;;;;;;;4.45;54.70;99378.88;4987247;28;20034;-67
2022/04/04 07:35:16;;;;;;;5.45;3.65;;;;;;;4.66;54.19;99373.91;4985526;28;20089;-67
2022/04/04 07:37:42;;;;;;;8.00;4.00;;;;;;;4.83;53.84;99382.06;5005117;28;20042;-67
2022/04/04 07:40:13;;;;;;;4.75;3.20;;;;;;;5.02;52.92;99365.78;5004486;28;20037;-68
2022/04/04 07:42:39;;;;;;;7.22;3.63;;;;;;;5.52;52.42;99365.81;5004734;28;20034;-67
2022/04/04 07:45:06;;;;;;;14.10;3.55;;;;;;;5.85;50.99;99361.13;5004977;28;20421;-68
2022/04/04 07:47:32;;;;;;;5.22;3.65;;;;;;;5.93;50.65;99358.22;5005087;28;20034;-68
2022/04/04 07:49:58;;;;;;;5.57;3.38;;;;;;;6.30;49.48;99364.72;5008214;28;20034;-64
2022/04/04 07:52:23;;;;;;;7.05;3.78;;;;;;;6.61;48.98;99359.97;5008702;28;20120;-65
2022/04/04 07:54:48;;;;;;;12.07;3.92;;;;;;;6.45;48.87;99353.66;5003145;28;20654;-64
2022/04/04 07:57:15;;;;;;;7.18;3.60;;;;;;;6.55;48.85;99344.53;5018683;28;20044;-63
2022/04/04 07:59:41;;;;;;;6.80;3.70;;;;;;;6.67;48.62;99353.66;5009692;28;20037;-63
2022/04/04 08:02:06;;;;;;;5.20;3.70;;;;;;;6.84;48.08;99340.72;5008105;28;20030;-65
2022/04/04 08:04:31;;;;;;;4.82;3.85;;;;;;;7.05;47.46;99336.34;5009237;28;20112;-64
2022/04/04 08:06:57;;;;;;;6.88;4.65;;;;;;;7.17;47.05;99353.34;5007966;28;20041;-64
2022/04/04 08:09:22;;;;;;;8.73;3.80;;;;;;;7.50;46.27;99337.91;4990479;28;20295;-63
2022/04/04 08:11:48;;;;;;;5.07;3.65;;;;;;;7.51;45.81;99323.03;4989207;28;20089;-64
2022/04/04 08:14:13;;;;;;;7.15;3.92;;;;;;;7.67;44.86;99331.91;5005789;28;20029;-65
2022/04/04 08:16:39;;;;;;;5.70;3.70;;;;;;;7.67;44.96;99315.34;5009350;28;20468;-65
2022/04/04 08:19:04;;;;;;;6.32;3.97;;;;;;;7.30;45.77;99317.78;5009248;28;20061;-66
2022/04/04 08:21:30;;;;;;;6.35;3.88;;;;;;;7.19;45.99;99306.94;5007440;28;20089;-64
2022/04/04 08:23:56;;;;;;;8.70;3.92;;;;;;;7.00;46.89;99304.25;5009365;28;20030;-66
2022/04/04 08:26:21;;;;;;;13.15;4.78;;;;;;;6.96;46.55;99314.91;5009247;28;20069;-64
2022/04/04 08:28:47;;;;;;;12.10;4.25;;;;;;;7.22;46.37;99304.19;5009367;28;20055;-65
2022/04/04 08:31:12;;;;;;;11.50;3.80;;;;;;;7.29;45.84;99295.13;5009320;28;20033;-64
2022/04/04 08:33:38;;;;;;;9.48;3.40;;;;;;;7.25;46.39;99290.09;5009210;28;20045;-67
2022/04/04 08:36:06;;;;;;;37.85;4.97;;;;;;;7.22;46.49;99282.38;5009487;28;20506;-66
2022/04/04 08:38:35;;;;;;;6.53;3.78;;;;;;;7.37;46.72;99281.69;5008921;28;20099;-65
2022/04/04 08:41:08;;;;;;;7.43;4.00;;;;;;;7.19;46.14;99272.88;5006757;28;20088;-67
2022/04/04 08:43:37;;;;;;;5.53;3.67;;;;;;;7.34;47.04;99275.75;5012353;28;20216;-66
2022/04/04 08:46:06;;;;;;;18.00;4.25;;;;;;;7.42;46.48;99273.63;5012553;28;20521;-64
2022/04/04 08:48:36;;;;;;;8.35;4.20;;;;;;;7.57;46.03;99264.22;5012165;28;20041;-66
2022/04/04 08:51:02;;;;;;;5.18;3.15;;;;;;;7.47;45.92;99256.75;5013247;28;20092;-65
2022/04/04 08:53:28;;;;;;;11.40;4.20;;;;;;;7.62;45.89;99260.44;5013743;28;20037;-66
2022/04/04 08:55:56;;;;;;;8.15;4.25;;;;;;;7.76;45.78;99251.94;5013459;28;20402;-64
2022/04/04 08:58:21;;;;;;;8.40;5.15;;;;;;;7.82;45.48;99251.66;5012674;28;20099;-65
2022/04/04 09:00:47;;;;;;;7.13;3.70;;;;;;;7.62;45.86;99244.72;5011494;28;20034;-65
2022/04/04 09:03:20;;;;;;;8.32;4.50;;;;;;;7.55;46.13;99243.28;5010128;28;20034;-66
2022/04/04 09:05:49;;;;;;;9.60;5.60;;;;;;;7.48;46.18;99229.63;5007732;28;20116;-65
2022/04/04 09:08:15;;;;;;;4.78;3.78;;;;;;;7.57;46.13;99230.09;4995765;28;20470;-66
2022/04/04 09:10:43;;;;;;;8.55;4.50;;;;;;;7.58;45.80;99224.81;4982943;28;20045;-67
2022/04/04 09:13:19;;;;;;;8.55;5.05;;;;;;;7.64;46.17;99221.88;4986313;28;20042;-67
2022/04/04 09:15:56;;;;;;;5.95;4.28;;;;;;;7.35;46.66;99233.69;4990182;28;20038;-66
2022/04/04 09:18:39;;;;;;;8.88;4.75;;;;;;;7.37;46.74;99208.25;5005475;28;20061;-65
2022/04/04 09:21:18;;;;;;;10.65;3.88;;;;;;;7.63;46.61;99200.94;5006471;28;20136;-65
2022/04/04 09:23:46;;;;;;;6.72;4.28;;;;;;;7.68;46.77;99204.25;5007139;28;20077;-65
2022/04/04 09:26:34;;;;;;;6.53;5.00;;;;;;;7.66;46.29;99203.47;5005656;28;20148;-66
2022/04/04 09:29:18;;;;;;;4.97;4.22;;;;;;;7.93;45.83;99199.53;5004953;28;20045;-66
2022/04/04 09:31:55;;;;;;;11.75;6.90;;;;;;;8.55;44.69;99183.41;5003188;28;20034;-66
2022/04/04 09:34:21;;;;;;;7.13;4.75;;;;;;;8.69;44.81;99177.44;5008173;28;20121;-65
2022/04/04 09:36:47;;;;;;;7.60;4.88;;;;;;;8.72;43.80;99172.03;5007612;28;20125;-65
2022/04/04 09:39:14;;;;;;;9.55;4.68;;;;;;;8.92;43.33;99174.47;5007756;28;20041;-67
2022/04/04 09:41:39;;;;;;;10.18;5.20;;;;;;;9.06;43.13;99181.66;4998456;28;20041;-65
2022/04/04 09:44:06;;;;;;;5.85;3.85;;;;;;;9.20;43.50;99165.97;5007690;28;20050;-65
2022/04/04 09:46:33;;;;;;;7.90;4.65;;;;;;;9.19;42.70;99173.97;5007553;28;20038;-66
2022/04/04 09:49:17;;;;;;;7.38;4.57;;;;;;;8.98;42.97;99165.41;5007364;28;20118;-65
2022/04/04 09:51:44;;;;;;;6.55;4.57;;;;;;;9.05;43.20;99177.31;5006602;28;20042;-65
2022/04/04 09:54:15;;;;;;;6.97;5.07;;;;;;;8.93;42.92;99149.88;5008289;28;20041;-65
2022/04/04 09:56:41;;;;;;;10.48;4.78;;;;;;;8.99;43.81;99154.81;5011991;28;20241;-65
2022/04/04 09:59:10;;;;;;;8.18;4.78;;;;;;;8.97;43.35;99148.78;5011297;28;20038;-65
2022/04/04 10:01:36;;;;;;;11.88;5.55;;;;;;;8.92;43.36;99149.97;5010278;28;20065;-65
2022/04/04 10:04:02;;;;;;;10.77;5.45;;;;;;;8.97;42.96;99145.31;5011684;28;20065;-66
2022/04/04 10:06:29;;;;;;;8.98;5.28;;;;;;;8.84;42.42;99141.66;5011690;28;20042;-65
2022/04/04 10:09:00;;;;;;;12.57;5.57;;;;;;;8.94;42.10;99132.34;5010343;28;20048;-67
2022/04/04 10:11:27;;;;;;;12.65;5.60;;;;;;;9.20;41.80;99115.16;5009457;28;20112;-66
2022/04/04 10:13:55;;;;;;;10.02;5.10;;;;;;;9.53;41.76;99115.09;5009960;28;20042;-66
2022/04/04 10:16:24;;;;;;;9.27;5.22;;;;;;;9.51;41.46;99118.75;5009292;28;20041;-65
2022/04/04 10:18:51;;;;;;;8.32;4.70;;;;;;;9.42;41.01;99125.34;5011351;28;20056;-67
2022/04/04 10:21:18;;;;;;;7.43;4.22;;;;;;;9.07;41.22;99116.75;5008025;28;20121;-65
2022/04/04 10:23:47;;;;;;;9.05;5.78;;;;;;;8.92;41.83;99098.25;5008773;28;20030;-66
2022/04/04 10:26:14;;;;;;;7.35;4.57;;;;;;;8.81;41.69;99093.56;5000863;28;20050;-65
2022/04/04 10:28:43;;;;;;;9.90;4.43;;;;;;;8.72;42.68;99106.34;5004944;28;20146;-66
2022/04/04 10:31:23;;;;;;;8.43;4.85;;;;;;;8.56;42.48;99107.13;4997543;28;20042;-66
2022/04/04 10:33:53;;;;;;;6.85;4.10;;;;;;;8.46;43.02;99110.31;4997699;28;20033;-66
2022/04/04 10:36:23;;;;;;;7.82;5.15;;;;;;;8.36;43.13;99094.16;5006381;28;20038;-66
2022/04/04 10:38:51;;;;;;;8.23;5.35;;;;;;;8.34;43.01;99094.25;5006104;28;20038;-66
2022/04/04 10:41:18;;;;;;;6.43;3.90;;;;;;;8.57;43.47;99082.56;5005028;28;20057;-65
2022/04/04 10:43:47;;;;;;;7.65;4.53;;;;;;;8.70;43.44;99082.75;5004848;28;20044;-65
2022/04/04 10:46:17;;;;;;;7.03;4.30;;;;;;;8.66;42.49;99086.47;5006654;28;20046;-65
2022/04/04 10:48:50;;;;;;;8.93;4.65;;;;;;;8.74;43.60;99084.31;5006403;28;20081;-65
2022/04/04 10:51:25;;;;;;;5.80;4.63;;;;;;;8.69;44.13;99091.59;5004789;28;20033;-66
2022/04/04 10:54:02;;;;;;;13.02;4.82;;;;;;;8.86;44.04;99090.69;5004006;28;20042;-65
2022/04/04 10:56:29;;;;;;;15.68;5.68;;;;;;;8.92;43.17;99081.63;5005768;28;20046;-64
2022/04/04 10:59:16;;;;;;;7.53;4.35;;;;;;;8.79;44.56;99071.78;5003348;28;20034;-65
2022/04/04 11:01:49;;;;;;;8.40;4.47;;;;;;;8.53;45.08;99090.69;5004070;28;20072;-65
2022/04/04 11:04:31;;;;;;;16.27;5.03;;;;;;;8.39;45.36;99065.09;5004889;28;20042;-65
2022/04/04 11:09:52;;;;;;;13.88;5.32;;;;;;;7.88;48.08;99072.09;5005316;28;20053;-66
2022/04/04 11:12:20;;;;;;;14.13;5.53;;;;;;;7.74;49.04;99073.59;5004552;28;20360;-66
2022/04/04 11:14:54;;;;;;;6.90;5.43;;;;;;;7.73;49.24;99087.66;4990230;28;20034;-66
2022/04/04 11:17:30;;;;;;;11.95;6.03;;;;;;;7.73;52.26;99071.06;4988261;28;20100;-67
2022/04/04 11:20:21;;;;;;;8.85;6.60;;;;;;;7.70;52.52;99086.94;4997752;28;20037;-67
2022/04/04 11:22:51;;;;;;;13.95;6.15;;;;;;;7.52;54.17;99078.19;5005913;28;20634;-66
2022/04/04 11:25:19;;;;;;;6.85;5.20;;;;;;;7.18;54.80;99073.69;5005106;28;20087;-66
2022/04/04 11:27:48;;;;;;;8.70;5.32;;;;;;;7.07;56.12;99068.97;5005874;28;20493;-68
2022/04/04 11:30:16;;;;;;;8.15;5.57;;;;;;;7.06;57.42;99078.59;5004705;28;20034;-65
2022/04/04 11:32:42;;;;;;;8.77;5.55;;;;;;;6.99;56.05;99071.06;5004549;28;20038;-65
2022/04/04 11:35:20;;;;;;;9.32;5.18;;;;;;;6.91;57.16;99062.72;5005153;28;20109;-66
2022/04/04 11:37:51;;;;;;;10.32;5.90;;;;;;;6.92;58.02;99064.44;5005548;28;20129;-66
2022/04/04 11:40:19;;;;;;;11.02;6.13;;;;;;;6.88;58.08;99068.94;5005694;28;20037;-66